sensor_id;sensor_type;location;lat;lon;timestamp;pressure;altitude;pressure_sealevel;temperature;humidity
72024;BME280;59889;50.700;5.440;2023-05-12T00:01:45;99978.00;;;23.29;35.53
72024;BME280;59889;50.700;5.440;2023-05-12T00:04:10;99978.98;;;23.15;35.67
72024;BME280;59889;50.700;5.440;2023-05-12T00:06:35;99979.83;;;23.27;35.58
72024;BME280;59889;50.700;5.440;2023-05-12T00:09:00;99979.93;;;23.22;35.63
72024;BME280;59889;50.700;5.440;2023-05-12T00:11:25;99977.78;;;23.44;35.62
72024;BME280;59889;50.700;5.440;2023-05-12T00:13:50;99973.92;;;23.32;35.49
72024;BME280;59889;50.700;5.440;2023-05-12T00:16:15;99973.54;;;23.21;35.63
72024;BME280;59889;50.700;5.440;2023-05-12T00:18:40;99973.18;;;23.28;35.53
72024;BME280;59889;50.700;5.440;2023-05-12T00:21:05;99972.63;;;23.24;35.59
72024;BME280;59889;50.700;5.440;2023-05-12T00:23:30;99971.30;;;23.24;35.58
72024;BME280;59889;50.700;5.440;2023-05-12T00:25:55;99970.07;;;23.25;35.58
72024;BME280;59889;50.700;5.440;2023-05-12T00:28:20;99968.18;;;23.52;35.55
72024;BME280;59889;50.700;5.440;2023-05-12T00:30:45;99967.03;;;23.30;35.54
72024;BME280;59889;50.700;5.440;2023-05-12T00:33:10;99961.28;;;23.30;35.51
72024;BME280;59889;50.700;5.440;2023-05-12T00:35:36;99963.51;;;23.20;35.63
72024;BME280;59889;50.700;5.440;2023-05-12T00:38:00;99964.82;;;23.30;35.52
72024;BME280;59889;50.700;5.440;2023-05-12T00:40:26;99965.19;;;23.01;35.60
72024;BME280;59889;50.700;5.440;2023-05-12T00:42:51;99962.29;;;23.34;35.44
72024;BME280;59889;50.700;5.440;2023-05-12T00:45:16;99962.57;;;23.30;35.51
72024;BME280;59889;50.700;5.440;2023-05-12T00:47:41;99957.77;;;23.31;35.49
72024;BME280;59889;50.700;5.440;2023-05-12T00:50:07;99956.24;;;23.30;35.53
72024;BME280;59889;50.700;5.440;2023-05-12T00:52:31;99956.46;;;23.29;35.53
72024;BME280;59889;50.700;5.440;2023-05-12T00:54:56;99955.74;;;23.30;35.53
72024;BME280;59889;50.700;5.440;2023-05-12T00:57:21;99955.35;;;23.32;35.51
72024;BME280;59889;50.700;5.440;2023-05-12T00:59:46;99953.71;;;23.31;35.52
72024;BME280;59889;50.700;5.440;2023-05-12T01:02:11;99951.94;;;23.23;35.62
72024;BME280;59889;50.700;5.440;2023-05-12T01:04:37;99950.26;;;23.31;35.52
72024;BME280;59889;50.700;5.440;2023-05-12T01:07:04;99951.36;;;23.27;35.56
72024;BME280;59889;50.700;5.440;2023-05-12T01:09:26;99949.06;;;23.03;35.56
72024;BME280;59889;50.700;5.440;2023-05-12T01:11:51;99948.80;;;23.20;35.62
72024;BME280;59889;50.700;5.440;2023-05-12T01:14:16;99949.13;;;23.22;35.62
72024;BME280;59889;50.700;5.440;2023-05-12T01:16:46;99945.65;;;23.25;35.59
72024;BME280;59889;50.700;5.440;2023-05-12T01:19:11;99946.03;;;23.19;35.67
72024;BME280;59889;50.700;5.440;2023-05-12T01:21:31;99944.08;;;23.43;35.63
72024;BME280;59889;50.700;5.440;2023-05-12T01:23:58;99942.87;;;23.07;35.49
72024;BME280;59889;50.700;5.440;2023-05-12T01:26:22;99942.34;;;23.22;35.65
72024;BME280;59889;50.700;5.440;2023-05-12T01:28:47;99939.55;;;23.29;35.53
72024;BME280;59889;50.700;5.440;2023-05-12T01:31:12;99938.91;;;23.22;35.61
72024;BME280;59889;50.700;5.440;2023-05-12T01:33:37;99935.17;;;23.30;35.53
72024;BME280;59889;50.700;5.440;2023-05-12T01:36:02;99931.80;;;23.25;35.60
72024;BME280;59889;50.700;5.440;2023-05-12T01:38:27;99933.94;;;23.17;35.70
72024;BME280;59889;50.700;5.440;2023-05-12T01:40:52;99930.29;;;23.26;35.58
72024;BME280;59889;50.700;5.440;2023-05-12T01:43:17;99929.20;;;23.28;35.56
72024;BME280;59889;50.700;5.440;2023-05-12T01:45:42;99929.09;;;23.25;35.60
72024;BME280;59889;50.700;5.440;2023-05-12T01:48:07;99925.82;;;23.31;35.51
72024;BME280;59889;50.700;5.440;2023-05-12T01:50:32;99924.67;;;23.37;35.44
72024;BME280;59889;50.700;5.440;2023-05-12T01:52:57;99924.24;;;23.34;35.48
72024;BME280;59889;50.700;5.440;2023-05-12T01:55:22;99922.77;;;23.35;35.48
72024;BME280;59889;50.700;5.440;2023-05-12T01:57:47;99922.29;;;23.30;35.55
72024;BME280;59889;50.700;5.440;2023-05-12T02:00:12;99922.05;;;23.27;35.57
72024;BME280;59889;50.700;5.440;2023-05-12T02:02:37;99924.98;;;23.25;35.59
72024;BME280;59889;50.700;5.440;2023-05-12T02:05:02;99926.17;;;23.28;35.57
72024;BME280;59889;50.700;5.440;2023-05-12T02:07:27;99921.62;;;23.25;35.57
72024;BME280;59889;50.700;5.440;2023-05-12T02:09:52;99921.60;;;23.30;35.55
72024;BME280;59889;50.700;5.440;2023-05-12T02:12:17;99921.02;;;23.32;35.55
72024;BME280;59889;50.700;5.440;2023-05-12T02:14:42;99921.96;;;23.33;35.51
72024;BME280;59889;50.700;5.440;2023-05-12T02:17:07;99918.61;;;23.01;35.58
72024;BME280;59889;50.700;5.440;2023-05-12T02:19:32;99917.92;;;23.20;35.63
72024;BME280;59889;50.700;5.440;2023-05-12T02:21:57;99916.26;;;23.39;35.40
72024;BME280;59889;50.700;5.440;2023-05-12T02:24:22;99916.39;;;23.19;35.68
72024;BME280;59889;50.700;5.440;2023-05-12T02:26:47;99914.64;;;23.28;35.55
72024;BME280;59889;50.700;5.440;2023-05-12T02:29:12;99914.29;;;23.25;35.58
72024;BME280;59889;50.700;5.440;2023-05-12T02:31:37;99911.19;;;23.23;35.64
72024;BME280;59889;50.700;5.440;2023-05-12T02:34:02;99906.97;;;23.29;35.56
72024;BME280;59889;50.700;5.440;2023-05-12T02:36:27;99906.59;;;23.29;35.55
72024;BME280;59889;50.700;5.440;2023-05-12T02:38:53;99905.59;;;23.26;35.63
72024;BME280;59889;50.700;5.440;2023-05-12T02:41:18;99903.78;;;23.18;35.68
72024;BME280;59889;50.700;5.440;2023-05-12T02:43:43;99903.65;;;23.27;35.53
72024;BME280;59889;50.700;5.440;2023-05-12T02:46:08;99903.16;;;23.55;35.51
72024;BME280;59889;50.700;5.440;2023-05-12T02:48:33;99900.36;;;23.25;35.59
72024;BME280;59889;50.700;5.440;2023-05-12T02:50:58;99899.18;;;23.25;35.63
72024;BME280;59889;50.700;5.440;2023-05-12T02:53:23;99898.91;;;23.29;35.54
72024;BME280;59889;50.700;5.440;2023-05-12T02:55:48;99898.19;;;23.22;35.66
72024;BME280;59889;50.700;5.440;2023-05-12T02:58:13;99894.69;;;23.33;35.51
72024;BME280;59889;50.700;5.440;2023-05-12T03:00:38;99891.55;;;23.17;35.75
72024;BME280;59889;50.700;5.440;2023-05-12T03:03:03;99888.56;;;23.20;35.68
72024;BME280;59889;50.700;5.440;2023-05-12T03:05:28;99889.16;;;23.19;35.68
72024;BME280;59889;50.700;5.440;2023-05-12T03:07:53;99885.33;;;23.20;35.66
72024;BME280;59889;50.700;5.440;2023-05-12T03:10:18;99883.90;;;23.29;35.57
72024;BME280;59889;50.700;5.440;2023-05-12T03:12:43;99879.57;;;23.22;35.66
72024;BME280;59889;50.700;5.440;2023-05-12T03:15:09;99879.37;;;23.25;35.63
72024;BME280;59889;50.700;5.440;2023-05-12T03:17:33;99877.02;;;23.22;35.62
72024;BME280;59889;50.700;5.440;2023-05-12T03:19:58;99874.46;;;23.28;35.57
72024;BME280;59889;50.700;5.440;2023-05-12T03:22:23;99870.30;;;23.39;35.43
72024;BME280;59889;50.700;5.440;2023-05-12T03:24:48;99868.38;;;23.26;35.56
72024;BME280;59889;50.700;5.440;2023-05-12T03:27:13;99865.31;;;23.22;35.61
72024;BME280;59889;50.700;5.440;2023-05-12T03:29:38;99862.42;;;23.29;35.55
72024;BME280;59889;50.700;5.440;2023-05-12T03:32:04;99860.84;;;23.19;35.66
72024;BME280;59889;50.700;5.440;2023-05-12T03:34:28;99858.34;;;23.18;35.69
72024;BME280;59889;50.700;5.440;2023-05-12T03:36:53;99859.17;;;23.21;35.67
72024;BME280;59889;50.700;5.440;2023-05-12T03:39:18;99854.59;;;23.25;35.59
72024;BME280;59889;50.700;5.440;2023-05-12T03:41:43;99854.68;;;23.24;35.59
72024;BME280;59889;50.700;5.440;2023-05-12T03:44:08;99853.35;;;23.25;35.63
72024;BME280;59889;50.700;5.440;2023-05-12T03:46:34;99851.75;;;23.18;35.69
72024;BME280;59889;50.700;5.440;2023-05-12T03:48:58;99848.09;;;23.28;35.53
72024;BME280;59889;50.700;5.440;2023-05-12T03:51:23;99847.26;;;23.32;35.50
72024;BME280;59889;50.700;5.440;2023-05-12T03:53:49;99848.88;;;23.45;35.66
72024;BME280;59889;50.700;5.440;2023-05-12T03:56:13;99843.57;;;23.26;35.56
72024;BME280;59889;50.700;5.440;2023-05-12T03:58:38;99845.03;;;23.17;35.70
72024;BME280;59889;50.700;5.440;2023-05-12T04:01:04;99843.21;;;23.07;35.79
72024;BME280;59889;50.700;5.440;2023-05-12T04:03:29;99842.16;;;23.08;36.67
72024;BME280;59889;50.700;5.440;2023-05-12T04:05:57;99841.01;;;22.98;36.98
72024;BME280;59889;50.700;5.440;2023-05-12T04:08:19;99839.05;;;23.06;36.89
72024;BME280;59889;50.700;5.440;2023-05-12T04:10:44;99839.02;;;22.99;37.01
72024;BME280;59889;50.700;5.440;2023-05-12T04:13:09;99838.21;;;22.83;37.15
72024;BME280;59889;50.700;5.440;2023-05-12T04:15:35;99838.63;;;22.87;36.97
72024;BME280;59889;50.700;5.440;2023-05-12T04:17:59;99838.06;;;22.79;37.00
72024;BME280;59889;50.700;5.440;2023-05-12T04:20:24;99839.59;;;23.35;36.81
72024;BME280;59889;50.700;5.440;2023-05-12T04:22:49;99838.13;;;22.78;36.95
72024;BME280;59889;50.700;5.440;2023-05-12T04:25:14;99838.23;;;22.77;36.97
72024;BME280;59889;50.700;5.440;2023-05-12T04:27:39;99840.91;;;23.25;36.95
72024;BME280;59889;50.700;5.440;2023-05-12T04:30:05;99843.62;;;22.77;36.93
72024;BME280;59889;50.700;5.440;2023-05-12T04:32:29;99843.22;;;23.06;36.77
72024;BME280;59889;50.700;5.440;2023-05-12T04:34:54;99840.66;;;22.70;36.77
72024;BME280;59889;50.700;5.440;2023-05-12T04:37:19;99840.79;;;22.90;36.69
72024;BME280;59889;50.700;5.440;2023-05-12T04:39:44;99843.01;;;22.75;36.48
72024;BME280;59889;50.700;5.440;2023-05-12T04:42:09;99844.76;;;23.04;36.33
72024;BME280;59889;50.700;5.440;2023-05-12T04:44:34;99845.90;;;22.83;36.24
72024;BME280;59889;50.700;5.440;2023-05-12T04:46:59;99845.49;;;22.79;36.56
72024;BME280;59889;50.700;5.440;2023-05-12T04:49:24;99849.77;;;22.72;36.29
72024;BME280;59889;50.700;5.440;2023-05-12T04:51:49;99850.77;;;22.65;36.29
72024;BME280;59889;50.700;5.440;2023-05-12T04:54:14;99852.62;;;22.67;36.23
72024;BME280;59889;50.700;5.440;2023-05-12T04:56:39;99852.97;;;23.07;36.30
72024;BME280;59889;50.700;5.440;2023-05-12T04:59:04;99857.35;;;22.62;36.24
72024;BME280;59889;50.700;5.440;2023-05-12T05:01:29;99859.45;;;22.69;36.08
72024;BME280;59889;50.700;5.440;2023-05-12T05:03:54;99860.00;;;22.66;36.09
72024;BME280;59889;50.700;5.440;2023-05-12T05:06:19;99866.35;;;22.62;36.05
72024;BME280;59889;50.700;5.440;2023-05-12T05:08:44;99870.20;;;23.03;36.10
72024;BME280;59889;50.700;5.440;2023-05-12T05:11:09;99868.81;;;22.60;36.01
72024;BME280;59889;50.700;5.440;2023-05-12T05:13:34;99869.57;;;22.56;36.02
72024;BME280;59889;50.700;5.440;2023-05-12T05:15:59;99871.28;;;22.70;35.81
72024;BME280;59889;50.700;5.440;2023-05-12T05:18:24;99873.29;;;22.54;36.12
72024;BME280;59889;50.700;5.440;2023-05-12T05:20:49;99874.33;;;22.56;36.15
72024;BME280;59889;50.700;5.440;2023-05-12T05:23:14;99876.71;;;22.59;36.13
72024;BME280;59889;50.700;5.440;2023-05-12T05:25:39;99876.84;;;22.75;36.22
72024;BME280;59889;50.700;5.440;2023-05-12T05:28:05;99879.40;;;22.79;36.20
72024;BME280;59889;50.700;5.440;2023-05-12T05:30:30;99876.56;;;22.43;36.35
72024;BME280;59889;50.700;5.440;2023-05-12T05:32:55;99878.03;;;22.85;36.10
72024;BME280;59889;50.700;5.440;2023-05-12T05:35:19;99875.05;;;23.04;36.17
72024;BME280;59889;50.700;5.440;2023-05-12T05:37:45;99876.87;;;23.04;36.19
72024;BME280;59889;50.700;5.440;2023-05-12T05:40:10;99876.28;;;22.56;36.15
72024;BME280;59889;50.700;5.440;2023-05-12T05:42:35;99876.84;;;22.46;36.25
72024;BME280;59889;50.700;5.440;2023-05-12T05:45:00;99878.08;;;22.48;36.22
72024;BME280;59889;50.700;5.440;2023-05-12T05:47:25;99876.30;;;22.67;36.25
72024;BME280;59889;50.700;5.440;2023-05-12T05:49:50;99877.54;;;22.43;36.21
72024;BME280;59889;50.700;5.440;2023-05-12T05:52:15;99877.66;;;22.90;36.22
72024;BME280;59889;50.700;5.440;2023-05-12T05:54:40;99879.72;;;22.78;36.11
72024;BME280;59889;50.700;5.440;2023-05-12T05:57:05;99880.81;;;22.60;36.33
72024;BME280;59889;50.700;5.440;2023-05-12T05:59:30;99886.08;;;22.52;36.21
72024;BME280;59889;50.700;5.440;2023-05-12T06:01:55;99884.85;;;22.49;36.25
72024;BME280;59889;50.700;5.440;2023-05-12T06:04:20;99889.24;;;22.78;36.14
72024;BME280;59889;50.700;5.440;2023-05-12T06:06:45;99889.83;;;22.58;36.25
72024;BME280;59889;50.700;5.440;2023-05-12T06:09:10;99891.21;;;22.66;36.45
72024;BME280;59889;50.700;5.440;2023-05-12T06:11:35;99893.48;;;22.61;36.62
72024;BME280;59889;50.700;5.440;2023-05-12T06:14:00;99896.10;;;22.88;36.70
72024;BME280;59889;50.700;5.440;2023-05-12T06:16:25;99896.96;;;22.97;36.70
72024;BME280;59889;50.700;5.440;2023-05-12T06:18:50;99898.24;;;22.99;36.77
72024;BME280;59889;50.700;5.440;2023-05-12T06:21:15;99900.55;;;22.73;36.83
72024;BME280;59889;50.700;5.440;2023-05-12T06:23:40;99904.69;;;22.99;36.85
72024;BME280;59889;50.700;5.440;2023-05-12T06:26:05;99905.92;;;22.68;36.95
72024;BME280;59889;50.700;5.440;2023-05-12T06:28:30;99907.46;;;22.54;36.88
72024;BME280;59889;50.700;5.440;2023-05-12T06:30:56;99908.23;;;22.48;36.98
72024;BME280;59889;50.700;5.440;2023-05-12T06:33:21;99909.25;;;22.47;36.99
72024;BME280;59889;50.700;5.440;2023-05-12T06:35:46;99906.84;;;22.86;37.11
72024;BME280;59889;50.700;5.440;2023-05-12T06:38:11;99907.09;;;22.39;37.11
72024;BME280;59889;50.700;5.440;2023-05-12T06:40:36;99907.29;;;22.85;37.16
72024;BME280;59889;50.700;5.440;2023-05-12T06:43:01;99907.23;;;22.83;37.22
72024;BME280;59889;50.700;5.440;2023-05-12T06:45:26;99903.53;;;22.92;37.10
72024;BME280;59889;50.700;5.440;2023-05-12T06:47:51;99905.31;;;22.72;37.06
72024;BME280;59889;50.700;5.440;2023-05-12T06:50:16;99907.75;;;22.92;37.11
72024;BME280;59889;50.700;5.440;2023-05-12T06:52:41;99908.18;;;22.61;36.89
72024;BME280;59889;50.700;5.440;2023-05-12T06:55:06;99906.35;;;22.64;37.17
72024;BME280;59889;50.700;5.440;2023-05-12T06:57:31;99906.97;;;22.91;37.13
72024;BME280;59889;50.700;5.440;2023-05-12T06:59:56;99910.65;;;22.65;37.16
72024;BME280;59889;50.700;5.440;2023-05-12T07:02:21;99909.50;;;22.78;37.33
72024;BME280;59889;50.700;5.440;2023-05-12T07:04:46;99908.53;;;22.38;37.23
72024;BME280;59889;50.700;5.440;2023-05-12T07:07:11;99909.18;;;22.48;37.10
72024;BME280;59889;50.700;5.440;2023-05-12T07:09:36;99910.50;;;22.57;37.29
72024;BME280;59889;50.700;5.440;2023-05-12T07:12:01;99913.97;;;22.52;37.07
72024;BME280;59889;50.700;5.440;2023-05-12T07:14:26;99912.44;;;22.87;36.92
72024;BME280;59889;50.700;5.440;2023-05-12T07:16:51;99912.68;;;22.35;37.27
72024;BME280;59889;50.700;5.440;2023-05-12T07:19:16;99916.87;;;22.47;37.14
72024;BME280;59889;50.700;5.440;2023-05-12T07:21:42;99920.00;;;22.75;37.09
72024;BME280;59889;50.700;5.440;2023-05-12T07:24:06;99919.66;;;22.88;37.24
72024;BME280;59889;50.700;5.440;2023-05-12T07:26:31;99921.44;;;22.96;37.12
72024;BME280;59889;50.700;5.440;2023-05-12T07:28:56;99923.36;;;22.43;37.16
72024;BME280;59889;50.700;5.440;2023-05-12T07:31:21;99921.80;;;22.87;37.22
72024;BME280;59889;50.700;5.440;2023-05-12T07:33:46;99922.16;;;22.68;37.13
72024;BME280;59889;50.700;5.440;2023-05-12T07:36:11;99924.44;;;22.65;37.18
72024;BME280;59889;50.700;5.440;2023-05-12T07:38:36;99927.36;;;22.59;36.97
72024;BME280;59889;50.700;5.440;2023-05-12T07:41:01;99927.44;;;22.72;37.09
72024;BME280;59889;50.700;5.440;2023-05-12T07:43:26;99924.66;;;22.36;37.28
72024;BME280;59889;50.700;5.440;2023-05-12T07:45:51;99927.87;;;22.97;37.13
72024;BME280;59889;50.700;5.440;2023-05-12T07:48:16;99930.78;;;22.82;37.35
72024;BME280;59889;50.700;5.440;2023-05-12T07:50:41;99930.69;;;22.35;37.41
72024;BME280;59889;50.700;5.440;2023-05-12T07:53:06;99932.24;;;22.36;37.39
72024;BME280;59889;50.700;5.440;2023-05-12T07:55:32;99932.37;;;22.59;37.43
72024;BME280;59889;50.700;5.440;2023-05-12T07:57:57;99931.31;;;22.78;37.51
72024;BME280;59889;50.700;5.440;2023-05-12T08:00:22;99928.14;;;22.78;37.53
72024;BME280;59889;50.700;5.440;2023-05-12T08:02:47;99927.03;;;22.86;37.40
72024;BME280;59889;50.700;5.440;2023-05-12T08:05:12;99927.33;;;22.70;37.62
72024;BME280;59889;50.700;5.440;2023-05-12T08:07:38;99929.53;;;22.86;37.39
72024;BME280;59889;50.700;5.440;2023-05-12T08:10:02;99931.50;;;22.68;37.63
72024;BME280;59889;50.700;5.440;2023-05-12T08:12:27;99931.35;;;22.79;37.48
72024;BME280;59889;50.700;5.440;2023-05-12T08:14:52;99934.27;;;22.89;37.36
72024;BME280;59889;50.700;5.440;2023-05-12T08:17:17;99936.54;;;22.39;37.38
72024;BME280;59889;50.700;5.440;2023-05-12T08:19:42;99939.87;;;22.85;37.39
72024;BME280;59889;50.700;5.440;2023-05-12T08:22:07;99945.29;;;22.38;37.37
72024;BME280;59889;50.700;5.440;2023-05-12T08:24:32;99943.07;;;22.39;37.35
72024;BME280;59889;50.700;5.440;2023-05-12T08:26:57;99944.58;;;22.66;37.63
72024;BME280;59889;50.700;5.440;2023-05-12T08:29:22;99947.08;;;22.47;37.57
72024;BME280;59889;50.700;5.440;2023-05-12T08:31:47;99945.72;;;22.86;37.40
72024;BME280;59889;50.700;5.440;2023-05-12T08:34:12;99946.86;;;22.58;37.46
72024;BME280;59889;50.700;5.440;2023-05-12T08:36:37;99950.35;;;22.84;37.39
72024;BME280;59889;50.700;5.440;2023-05-12T08:39:02;99950.75;;;22.66;37.31
72024;BME280;59889;50.700;5.440;2023-05-12T08:41:35;99950.80;;;22.74;37.23
72024;BME280;59889;50.700;5.440;2023-05-12T08:43:52;99951.80;;;22.86;37.37
72024;BME280;59889;50.700;5.440;2023-05-12T08:46:17;99956.39;;;22.43;37.32
72024;BME280;59889;50.700;5.440;2023-05-12T08:48:44;99957.98;;;22.69;37.31
72024;BME280;59889;50.700;5.440;2023-05-12T08:51:08;99959.56;;;22.70;37.27
72024;BME280;59889;50.700;5.440;2023-05-12T08:53:32;99962.37;;;22.75;37.53
72024;BME280;59889;50.700;5.440;2023-05-12T08:55:59;99964.94;;;22.79;37.47
72024;BME280;59889;50.700;5.440;2023-05-12T08:58:23;99967.91;;;22.64;37.42
72024;BME280;59889;50.700;5.440;2023-05-12T09:00:49;99968.22;;;22.41;37.69
72024;BME280;59889;50.700;5.440;2023-05-12T09:03:13;99970.33;;;22.18;37.66
72024;BME280;59889;50.700;5.440;2023-05-12T09:05:39;99975.00;;;22.62;37.38
72024;BME280;59889;50.700;5.440;2023-05-12T09:08:04;99975.69;;;22.58;37.45
72024;BME280;59889;50.700;5.440;2023-05-12T09:10:28;99976.06;;;22.89;37.36
72024;BME280;59889;50.700;5.440;2023-05-12T09:12:56;99976.30;;;22.79;37.51
72024;BME280;59889;50.700;5.440;2023-05-12T09:15:22;99978.37;;;22.84;37.42
72024;BME280;59889;50.700;5.440;2023-05-12T09:17:43;99976.62;;;22.85;37.40
72024;BME280;59889;50.700;5.440;2023-05-12T09:20:09;99973.69;;;22.47;37.56
72024;BME280;59889;50.700;5.440;2023-05-12T09:22:33;99975.33;;;22.56;37.45
72024;BME280;59889;50.700;5.440;2023-05-12T09:24:58;99977.09;;;22.57;37.42
72024;BME280;59889;50.700;5.440;2023-05-12T09:27:24;99979.58;;;22.83;37.40
72024;BME280;59889;50.700;5.440;2023-05-12T09:29:48;99977.28;;;22.63;37.32
72024;BME280;59889;50.700;5.440;2023-05-12T09:32:13;99980.14;;;22.56;37.43
72024;BME280;59889;50.700;5.440;2023-05-12T09:34:38;99979.34;;;22.86;37.35
72024;BME280;59889;50.700;5.440;2023-05-12T09:37:05;99978.13;;;22.63;37.33
72024;BME280;59889;50.700;5.440;2023-05-12T09:39:28;99977.72;;;22.92;37.28
72024;BME280;59889;50.700;5.440;2023-05-12T09:41:54;99975.73;;;22.33;37.39
72024;BME280;59889;50.700;5.440;2023-05-12T09:44:19;99979.34;;;22.68;37.29
72024;BME280;59889;50.700;5.440;2023-05-12T09:46:44;99977.65;;;22.94;37.26
72024;BME280;59889;50.700;5.440;2023-05-12T09:49:08;99978.33;;;22.80;37.41
72024;BME280;59889;50.700;5.440;2023-05-12T09:51:33;99979.36;;;22.74;37.20
72024;BME280;59889;50.700;5.440;2023-05-12T09:53:59;99980.20;;;22.37;37.35
72024;BME280;59889;50.700;5.440;2023-05-12T09:56:26;99982.09;;;22.78;37.47
72024;BME280;59889;50.700;5.440;2023-05-12T09:58:49;99983.83;;;22.68;37.27
72024;BME280;59889;50.700;5.440;2023-05-12T10:01:14;99988.88;;;22.66;37.27
72024;BME280;59889;50.700;5.440;2023-05-12T10:03:39;99988.37;;;22.61;37.34
72024;BME280;59889;50.700;5.440;2023-05-12T10:06:05;99988.11;;;22.88;37.32
72024;BME280;59889;50.700;5.440;2023-05-12T10:08:33;99991.46;;;22.70;37.24
72024;BME280;59889;50.700;5.440;2023-05-12T10:10:55;99994.12;;;22.76;37.15
72024;BME280;59889;50.700;5.440;2023-05-12T10:13:19;99993.26;;;22.48;37.20
72024;BME280;59889;50.700;5.440;2023-05-12T10:15:45;99993.39;;;22.46;37.19
72024;BME280;59889;50.700;5.440;2023-05-12T10:18:09;99993.70;;;22.68;37.25
72024;BME280;59889;50.700;5.440;2023-05-12T10:20:34;99991.13;;;22.87;37.29
72024;BME280;59889;50.700;5.440;2023-05-12T10:23:00;99990.12;;;22.40;37.29
72024;BME280;59889;50.700;5.440;2023-05-12T10:25:24;99991.93;;;22.70;37.24
72024;BME280;59889;50.700;5.440;2023-05-12T10:27:49;99992.35;;;22.68;37.27
72024;BME280;59889;50.700;5.440;2023-05-12T10:30:15;99991.71;;;22.69;37.29
72024;BME280;59889;50.700;5.440;2023-05-12T10:32:39;99997.72;;;22.78;37.24
72024;BME280;59889;50.700;5.440;2023-05-12T10:35:10;99995.48;;;22.44;37.33
72024;BME280;59889;50.700;5.440;2023-05-12T10:37:29;99998.19;;;22.76;37.26
72024;BME280;59889;50.700;5.440;2023-05-12T10:39:54;99998.80;;;22.71;37.33
72024;BME280;59889;50.700;5.440;2023-05-12T10:42:21;99996.28;;;22.91;37.38
72024;BME280;59889;50.700;5.440;2023-05-12T10:44:49;99999.78;;;22.51;37.30
72024;BME280;59889;50.700;5.440;2023-05-12T10:47:12;99997.41;;;22.63;37.43
72024;BME280;59889;50.700;5.440;2023-05-12T10:49:38;100004.57;;;22.80;37.28
72024;BME280;59889;50.700;5.440;2023-05-12T10:51:59;100002.36;;;22.78;37.28
72024;BME280;59889;50.700;5.440;2023-05-12T10:54:24;99999.03;;;22.53;37.26
72024;BME280;59889;50.700;5.440;2023-05-12T10:56:49;99995.77;;;22.92;37.39
72024;BME280;59889;50.700;5.440;2023-05-12T10:59:16;99997.10;;;22.42;37.38
72024;BME280;59889;50.700;5.440;2023-05-12T11:01:40;99993.26;;;22.55;37.55
72024;BME280;59889;50.700;5.440;2023-05-12T11:04:14;99997.09;;;22.52;37.29
72024;BME280;59889;50.700;5.440;2023-05-12T11:06:29;99991.75;;;22.87;37.44
72024;BME280;59889;50.700;5.440;2023-05-12T11:08:55;99995.00;;;22.97;37.30
72024;BME280;59889;50.700;5.440;2023-05-12T11:11:19;99995.74;;;22.44;37.36
72024;BME280;59889;50.700;5.440;2023-05-12T11:13:44;99999.28;;;22.41;37.38
72024;BME280;59889;50.700;5.440;2023-05-12T11:16:11;100005.11;;;22.38;37.42
72024;BME280;59889;50.700;5.440;2023-05-12T11:18:34;100007.35;;;22.86;37.40
72024;BME280;59889;50.700;5.440;2023-05-12T11:21:07;100013.25;;;22.96;37.30
72024;BME280;59889;50.700;5.440;2023-05-12T11:23:24;100017.32;;;22.68;37.32
72024;BME280;59889;50.700;5.440;2023-05-12T11:25:49;100019.84;;;22.66;37.35
72024;BME280;59889;50.700;5.440;2023-05-12T11:28:14;100020.30;;;22.43;37.31
72024;BME280;59889;50.700;5.440;2023-05-12T11:30:48;100023.72;;;22.91;37.31
72024;BME280;59889;50.700;5.440;2023-05-12T11:33:04;100024.35;;;22.40;37.37
72024;BME280;59889;50.700;5.440;2023-05-12T11:35:30;100027.82;;;22.67;37.31
72024;BME280;59889;50.700;5.440;2023-05-12T11:37:55;100029.79;;;22.28;37.51
72024;BME280;59889;50.700;5.440;2023-05-12T11:40:21;100034.06;;;22.56;37.53
72024;BME280;59889;50.700;5.440;2023-05-12T11:42:45;100035.14;;;22.85;37.46
72024;BME280;59889;50.700;5.440;2023-05-12T11:45:18;100037.79;;;22.46;37.64
72024;BME280;59889;50.700;5.440;2023-05-12T11:47:35;100039.63;;;22.83;37.44
72024;BME280;59889;50.700;5.440;2023-05-12T11:50:02;100046.95;;;22.36;37.46
72024;BME280;59889;50.700;5.440;2023-05-12T11:52:26;100055.37;;;22.85;37.43
72024;BME280;59889;50.700;5.440;2023-05-12T11:54:51;100057.21;;;22.58;37.49
72024;BME280;59889;50.700;5.440;2023-05-12T11:57:24;100064.30;;;22.48;37.32
72024;BME280;59889;50.700;5.440;2023-05-12T11:59:40;100060.74;;;22.67;37.39
72024;BME280;59889;50.700;5.440;2023-05-12T12:02:05;100051.84;;;22.58;37.49
72024;BME280;59889;50.700;5.440;2023-05-12T12:04:33;100050.69;;;22.86;37.45
72024;BME280;59889;50.700;5.440;2023-05-12T12:06:55;100058.94;;;22.87;37.44
72024;BME280;59889;50.700;5.440;2023-05-12T12:09:30;100066.28;;;22.75;37.61
72024;BME280;59889;50.700;5.440;2023-05-12T12:11:45;100068.96;;;22.44;37.39
72024;BME280;59889;50.700;5.440;2023-05-12T12:14:10;100062.99;;;22.60;37.49
72024;BME280;59889;50.700;5.440;2023-05-12T12:16:35;100060.71;;;22.43;37.43
72024;BME280;59889;50.700;5.440;2023-05-12T12:19:00;100062.38;;;22.41;37.46
72024;BME280;59889;50.700;5.440;2023-05-12T12:21:26;100063.11;;;22.44;37.40
72024;BME280;59889;50.700;5.440;2023-05-12T12:23:51;100064.09;;;22.90;37.51
72024;BME280;59889;50.700;5.440;2023-05-12T12:26:16;100072.48;;;22.45;37.46
72024;BME280;59889;50.700;5.440;2023-05-12T12:28:41;100077.88;;;22.72;37.43
72024;BME280;59889;50.700;5.440;2023-05-12T12:31:05;100075.24;;;22.28;37.67
72024;BME280;59889;50.700;5.440;2023-05-12T12:33:30;100072.31;;;22.50;37.40
72024;BME280;59889;50.700;5.440;2023-05-12T12:35:55;100072.99;;;22.79;37.65
72024;BME280;59889;50.700;5.440;2023-05-12T12:38:20;100073.70;;;22.39;37.56
72024;BME280;59889;50.700;5.440;2023-05-12T12:40:46;100079.47;;;23.00;37.37
72024;BME280;59889;50.700;5.440;2023-05-12T12:43:11;100080.50;;;22.62;37.54
72024;BME280;59889;50.700;5.440;2023-05-12T12:45:36;100085.66;;;22.88;37.50
72024;BME280;59889;50.700;5.440;2023-05-12T12:48:01;100083.76;;;22.40;37.53